Boody, IL (62514)

3:10 AM CDT on July 25, 2016 (GMT -0500)
Sanitary District of Decatur | | Change Station

Elev 604 ft 39.84 °N, 89.00 °W | Updated 2 seconds ago

Rain
Rain
70.9 °F
Feels Like 70.9 °F
N
5.3
Wind Variable Wind from South

Today
High -- | Low -- °F
--% Chance of Precip.
Yesterday
High -- | Low -- °F
Precip. -- in
Pressure 29.99 in
Visibility 7.0 miles
Clouds Mostly Cloudy 11000 ft
Dew Point 67 °F
Humidity 88%
Rainfall 0.38 in
Snow Depth Not available.
5:49 AM 8:15 PM
Waning Gibbous, 68% visible
METAR KDEC 250754Z AUTO 20008KT 7SM RA BKN110 22/21 A3001 RMK AO2 LTG DSNT S AND SW TSE03B28E43 SLP156 P0008 T02170206
Pressure 29.99 in
Visibility 7.0 miles
Clouds Mostly Cloudy 11000 ft
Dew Point 67 °F
Humidity 88%
Rainfall 0.38 in
Snow Depth Not available.
5:49 AM 8:15 PM
Waning Gibbous, 68% visible
METAR KDEC 250754Z AUTO 20008KT 7SM RA BKN110 22/21 A3001 RMK AO2 LTG DSNT S AND SW TSE03B28E43 SLP156 P0008 T02170206

10-Day Weather Forecast

Almanac

Astronomy

Jul. 25, 2016 Rise Set
Actual Time
Civil Twilight
Nautical Twilight
Astronomical Twilight
Moon
Length of Visible Light
Length of Day
Tomorrow will be .
, % of the Moon is Illuminated

Today's Extremes

State Highs State Lows

Community

WunderPhotos

Upload Photos

1,927,274 photos uploaded!

WunderBlog® & News

Nearby

Air Quality

  Air Quality AQ Index Pollutant
Not available.

Snow Depth

Station Depth Elevation

Earthquake Activity

City Distance Mag. Time & Date
Minimum magnitude displayed is 2.5.

Coastal Water Temperatures

Place Temperature

Stations

Nearby Weather Stations

Station Location Temp. Windchill Dew Point Humidity Wind Precip. Elev Updated Type
                   

Watches & Warnings

There are currently no watches in effect.